Time;durP1;ratioP1;P1;durP2;ratioP2;P2;SDS_P1;SDS_P2;PMS_P1;PMS_P2;Temp;Humidity;BMP_temperature;BMP_pressure;BME280_temperature;BME280_humidity;BME280_pressure;Samples;Min_cycle;Max_cycle;Signal;HPM_P1;HPM_P2
2022/02/01 00:01:23;;;;;;;11.48;8.82;;;;;;;;;;5096361;28;20667;-82
2022/02/01 00:03:54;;;;;;;10.70;7.97;;;;;;;;;;5096031;28;20196;-81
2022/02/01 00:06:27;;;;;;;11.60;8.77;;;;;;;;;;5096353;28;20200;-82
2022/02/01 00:09:05;;;;;;;11.90;8.02;;;;;;;;;;5096272;28;20277;-83
2022/02/01 00:11:39;;;;;;;11.77;8.77;;;;;;;;;;5096477;28;20203;-81
2022/02/01 00:14:15;;;;;;;9.75;8.15;;;;;;;;;;5096469;28;20264;-83
2022/02/01 00:19:59;;;;;;;10.15;8.52;;;;;;;;;;5096009;28;20223;-82
2022/02/01 00:33:47;;;;;;;8.50;7.30;;;;;;;;;;5094131;28;20198;-83
2022/02/01 00:36:26;;;;;;;7.97;6.65;;;;;;;;;;5095540;28;20661;-82
2022/02/01 00:38:58;;;;;;;9.05;7.95;;;;;;;;;;5095387;28;20224;-82
2022/02/01 00:41:29;;;;;;;7.85;7.05;;;;;;;;;;5095083;28;20192;-81
2022/02/01 00:43:57;;;;;;;9.63;7.72;;;;;;;;;;5094932;28;20262;-82
2022/02/01 00:46:24;;;;;;;8.00;6.78;;;;;;;;;;5094689;28;20208;-83
2022/02/01 00:48:53;;;;;;;11.65;7.75;;;;;;;;;;5094592;28;20228;-82
2022/02/01 00:51:21;;;;;;;11.70;8.73;;;;;;;;;;5094417;28;20208;-83
2022/02/01 00:53:49;;;;;;;8.30;7.40;;;;;;;;;;5095352;28;20575;-82
2022/02/01 00:56:16;;;;;;;9.90;6.82;;;;;;;;;;5095987;28;20250;-82
2022/02/01 00:58:45;;;;;;;9.43;7.45;;;;;;;;;;5095658;28;20262;-81
2022/02/01 01:01:12;;;;;;;9.70;8.55;;;;;;;;;;5095585;28;20601;-83
2022/02/01 01:03:40;;;;;;;7.18;6.35;;;;;;;;;;5095581;28;20230;-82
2022/02/01 01:06:08;;;;;;;8.65;6.93;;;;;;;;;;5095280;28;20672;-84
2022/02/01 01:08:35;;;;;;;6.70;5.82;;;;;;;;;;5095439;28;20278;-82
2022/02/01 01:11:04;;;;;;;7.35;5.30;;;;;;;;;;5095346;28;20207;-84
2022/02/01 01:16:36;;;;;;;11.50;8.23;;;;;;;;;;5093675;28;20563;-84
2022/02/01 01:43:42;;;;;;;4.32;3.92;;;;;;;;;;5065166;28;20226;-83
2022/02/01 01:54:38;;;;;;;3.35;3.05;;;;;;;;;;5003462;28;20274;-83
2022/02/01 01:57:06;;;;;;;3.35;3.05;;;;;;;;;;5097739;28;20208;-83
2022/02/01 01:59:34;;;;;;;3.33;2.53;;;;;;;;;;5096640;28;20216;-84
2022/02/01 02:02:01;;;;;;;6.22;2.55;;;;;;;;;;5098697;28;20631;-83
2022/02/01 02:04:29;;;;;;;4.57;3.03;;;;;;;;;;5098280;28;20192;-83
2022/02/01 02:06:56;;;;;;;6.07;3.03;;;;;;;;;;5097952;28;20215;-84
2022/02/01 02:09:23;;;;;;;5.95;3.38;;;;;;;;;;5097636;28;20224;-82
2022/02/01 02:11:57;;;;;;;7.65;3.40;;;;;;;;;;5097321;28;20283;-84
2022/02/01 02:14:26;;;;;;;5.43;2.90;;;;;;;;;;5097894;28;20200;-83
2022/02/01 02:16:57;;;;;;;5.43;3.00;;;;;;;;;;5096927;28;20200;-83
2022/02/01 02:19:26;;;;;;;5.45;4.22;;;;;;;;;;5096840;28;20216;-83
2022/02/01 02:21:56;;;;;;;3.42;2.58;;;;;;;;;;5095599;28;20196;-84
2022/02/01 02:24:29;;;;;;;3.17;1.83;;;;;;;;;;5098052;28;20204;-84
2022/02/01 02:26:58;;;;;;;3.00;2.17;;;;;;;;;;5101296;28;20586;-82
2022/02/01 02:29:25;;;;;;;3.90;2.05;;;;;;;;;;5103716;28;20229;-84
2022/02/01 02:31:53;;;;;;;2.78;1.83;;;;;;;;;;5101679;28;20211;-84
2022/02/01 02:34:20;;;;;;;4.18;2.80;;;;;;;;;;5103390;28;20204;-82
2022/02/01 02:36:54;;;;;;;5.53;2.08;;;;;;;;;;5107188;28;20196;-84
2022/02/01 02:39:28;;;;;;;5.43;2.45;;;;;;;;;;5104786;28;20216;-84
2022/02/01 02:42:08;;;;;;;7.15;3.03;;;;;;;;;;5099912;28;20199;-84
2022/02/01 02:47:22;;;;;;;6.35;2.35;;;;;;;;;;5099095;28;20198;-84
2022/02/01 02:49:49;;;;;;;3.30;2.22;;;;;;;;;;5096678;28;20262;-83
2022/02/01 02:52:17;;;;;;;6.55;2.88;;;;;;;;;;5097825;28;20200;-82
2022/02/01 02:54:45;;;;;;;7.55;3.65;;;;;;;;;;5096676;28;20200;-84
2022/02/01 02:57:13;;;;;;;7.57;2.92;;;;;;;;;;5096821;28;20661;-83
2022/02/01 02:59:40;;;;;;;6.78;2.20;;;;;;;;;;5096124;28;20273;-85
2022/02/01 03:02:08;;;;;;;7.10;2.70;;;;;;;;;;5096083;28;20668;-84
2022/02/01 03:04:37;;;;;;;6.57;2.85;;;;;;;;;;5096424;28;20200;-84
2022/02/01 03:07:07;;;;;;;10.55;3.10;;;;;;;;;;5099420;28;20200;-85
2022/02/01 03:09:40;;;;;;;5.40;2.95;;;;;;;;;;5103999;28;20241;-83
2022/02/01 03:12:13;;;;;;;8.50;3.38;;;;;;;;;;5099851;28;20196;-83
2022/02/01 03:14:51;;;;;;;10.45;3.63;;;;;;;;;;5099738;28;20225;-84
2022/02/01 03:17:27;;;;;;;11.27;4.43;;;;;;;;;;5099042;28;20257;-84
2022/02/01 03:19:55;;;;;;;10.82;3.70;;;;;;;;;;5097578;28;20654;-84
2022/02/01 03:22:25;;;;;;;8.98;4.47;;;;;;;;;;5097684;28;20207;-84
2022/02/01 03:24:54;;;;;;;14.40;4.47;;;;;;;;;;5097174;28;20737;-83
2022/02/01 03:27:23;;;;;;;13.02;4.60;;;;;;;;;;5095124;28;20237;-84
2022/02/01 03:29:51;;;;;;;11.68;3.78;;;;;;;;;;5097190;28;20220;-84
2022/02/01 03:32:20;;;;;;;14.48;4.00;;;;;;;;;;5097700;28;20216;-84
2022/02/01 03:34:48;;;;;;;10.88;4.32;;;;;;;;;;5097963;28;20281;-84
2022/02/01 03:37:15;;;;;;;12.88;3.15;;;;;;;;;;5095580;28;20204;-84
2022/02/01 03:39:43;;;;;;;6.70;3.55;;;;;;;;;;5097654;28;20220;-84
2022/02/01 03:42:12;;;;;;;8.07;3.35;;;;;;;;;;5098064;28;20204;-84
2022/02/01 03:44:41;;;;;;;10.00;3.60;;;;;;;;;;5095849;28;20211;-84
2022/02/01 03:47:09;;;;;;;10.10;3.25;;;;;;;;;;5095386;28;20200;-84
2022/02/01 03:49:39;;;;;;;10.10;3.13;;;;;;;;;;5095516;28;20634;-84
2022/02/01 03:52:08;;;;;;;18.67;4.85;;;;;;;;;;5095776;28;20572;-83
2022/02/01 03:54:36;;;;;;;14.15;3.55;;;;;;;;;;5097790;28;20615;-84
2022/02/01 03:57:07;;;;;;;8.25;3.67;;;;;;;;;;5096932;28;20322;-84
2022/02/01 03:59:34;;;;;;;11.65;4.55;;;;;;;;;;5096208;28;20228;-82
2022/02/01 04:02:04;;;;;;;15.15;2.95;;;;;;;;;;5096986;28;20203;-84
2022/02/01 04:04:33;;;;;;;10.68;3.05;;;;;;;;;;5097521;28;20204;-84
2022/02/01 04:07:01;;;;;;;16.95;4.35;;;;;;;;;;5097915;28;20560;-83
2022/02/01 04:09:29;;;;;;;8.82;2.75;;;;;;;;;;5100195;28;20289;-82
2022/02/01 04:11:59;;;;;;;7.88;2.80;;;;;;;;;;5099487;28;20196;-82
2022/02/01 04:14:29;;;;;;;8.10;3.55;;;;;;;;;;5099140;28;20211;-83
2022/02/01 04:16:58;;;;;;;5.88;2.53;;;;;;;;;;5100590;28;20294;-83
2022/02/01 04:19:29;;;;;;;13.88;2.92;;;;;;;;;;5100732;28;20258;-83
2022/02/01 04:22:00;;;;;;;10.35;3.47;;;;;;;;;;5098500;28;20193;-83
2022/02/01 04:24:28;;;;;;;10.32;3.58;;;;;;;;;;5098193;28;20209;-84
2022/02/01 04:26:56;;;;;;;7.93;3.50;;;;;;;;;;5101318;28;20203;-82
2022/02/01 04:29:23;;;;;;;5.75;2.60;;;;;;;;;;5099969;28;20224;-84
2022/02/01 04:31:51;;;;;;;3.97;1.80;;;;;;;;;;5099041;28;20225;-84
2022/02/01 04:34:18;;;;;;;13.85;3.80;;;;;;;;;;5099728;28;20200;-83
2022/02/01 04:36:47;;;;;;;6.50;3.25;;;;;;;;;;5099835;28;20197;-82
2022/02/01 04:39:15;;;;;;;8.65;2.75;;;;;;;;;;5100161;28;20223;-84
2022/02/01 04:41:42;;;;;;;4.70;2.13;;;;;;;;;;5099866;28;20656;-83
2022/02/01 04:44:09;;;;;;;10.73;3.00;;;;;;;;;;5099268;28;20211;-83
2022/02/01 04:46:37;;;;;;;9.60;3.05;;;;;;;;;;5099338;28;20208;-84
2022/02/01 04:49:08;;;;;;;8.75;2.95;;;;;;;;;;5144546;22;20301;-85
2022/02/01 04:51:36;;;;;;;9.80;3.83;;;;;;;;;;5097160;28;20224;-86
2022/02/01 04:54:06;;;;;;;6.40;2.65;;;;;;;;;;5098475;28;20737;-85
2022/02/01 04:56:35;;;;;;;10.75;4.60;;;;;;;;;;5098257;28;20231;-84
2022/02/01 04:59:03;;;;;;;11.07;3.63;;;;;;;;;;5098340;28;20231;-85
2022/02/01 05:01:37;;;;;;;8.82;3.05;;;;;;;;;;5098265;28;20199;-85
2022/02/01 05:04:05;;;;;;;5.28;2.90;;;;;;;;;;5098244;28;20264;-84
2022/02/01 05:06:32;;;;;;;13.38;4.68;;;;;;;;;;5098027;28;20246;-84
2022/02/01 05:09:00;;;;;;;5.88;2.90;;;;;;;;;;5097977;28;20269;-85
2022/02/01 05:11:29;;;;;;;10.55;3.88;;;;;;;;;;5097625;28;20216;-84
2022/02/01 05:14:07;;;;;;;12.32;4.85;;;;;;;;;;5097962;28;20231;-84
2022/02/01 05:16:44;;;;;;;7.88;2.80;;;;;;;;;;5098107;28;20203;-84
2022/02/01 05:19:22;;;;;;;12.68;3.08;;;;;;;;;;5097518;28;20212;-85
2022/02/01 05:21:50;;;;;;;6.85;2.95;;;;;;;;;;5097512;28;20222;-85
2022/02/01 05:24:19;;;;;;;11.07;2.78;;;;;;;;;;5097185;28;20669;-85
2022/02/01 05:26:48;;;;;;;7.18;3.97;;;;;;;;;;5097502;28;20207;-84
2022/02/01 05:29:17;;;;;;;8.18;3.17;;;;;;;;;;5096993;28;20224;-84
2022/02/01 05:31:45;;;;;;;7.93;2.92;;;;;;;;;;5096859;28;20269;-84
2022/02/01 05:34:12;;;;;;;3.42;2.00;;;;;;;;;;5097970;28;20228;-84
2022/02/01 05:36:39;;;;;;;5.13;3.53;;;;;;;;;;5097676;28;20257;-84
2022/02/01 05:39:18;;;;;;;9.05;2.42;;;;;;;;;;5097311;28;20224;-84
2022/02/01 05:41:49;;;;;;;4.45;1.75;;;;;;;;;;5096907;28;20626;-84
2022/02/01 05:44:17;;;;;;;10.25;3.63;;;;;;;;;;5097462;28;20226;-85
2022/02/01 05:46:44;;;;;;;8.90;3.10;;;;;;;;;;5097012;28;20208;-85
2022/02/01 05:49:12;;;;;;;3.95;2.10;;;;;;;;;;5098335;28;20715;-84
2022/02/01 05:51:41;;;;;;;6.85;3.67;;;;;;;;;;5095381;28;20216;-84
2022/02/01 05:54:13;;;;;;;4.40;2.42;;;;;;;;;;5095879;28;20695;-84
2022/02/01 05:56:40;;;;;;;7.53;2.60;;;;;;;;;;5096426;28;20204;-84
2022/02/01 05:59:09;;;;;;;9.68;3.50;;;;;;;;;;5095921;28;20227;-84
2022/02/01 06:01:36;;;;;;;9.13;3.00;;;;;;;;;;5096578;28;20204;-85
2022/02/01 06:04:03;;;;;;;6.35;3.20;;;;;;;;;;5096863;28;20277;-84
2022/02/01 06:06:31;;;;;;;9.20;3.30;;;;;;;;;;5096010;28;20200;-85
2022/02/01 06:08:58;;;;;;;7.50;2.60;;;;;;;;;;5096568;28;20227;-84
2022/02/01 06:11:25;;;;;;;4.88;2.53;;;;;;;;;;5096033;28;20220;-84
2022/02/01 06:13:52;;;;;;;5.15;2.42;;;;;;;;;;5096314;28;20227;-85
2022/02/01 06:16:21;;;;;;;6.93;2.25;;;;;;;;;;5096397;28;20200;-85
2022/02/01 06:18:48;;;;;;;2.70;1.80;;;;;;;;;;5096010;28;20217;-84
2022/02/01 06:21:16;;;;;;;6.68;3.25;;;;;;;;;;5096369;28;20201;-84
2022/02/01 06:23:43;;;;;;;5.85;3.50;;;;;;;;;;5094601;28;20196;-84
2022/02/01 06:26:10;;;;;;;5.10;3.28;;;;;;;;;;5095926;28;20261;-84
2022/02/01 06:28:38;;;;;;;7.25;3.10;;;;;;;;;;5095486;28;20232;-84
2022/02/01 06:31:05;;;;;;;6.80;3.00;;;;;;;;;;5094226;28;20200;-85
2022/02/01 06:33:34;;;;;;;9.15;3.25;;;;;;;;;;5095622;28;20208;-85
2022/02/01 06:36:01;;;;;;;6.15;2.13;;;;;;;;;;5095726;28;20200;-85
2022/02/01 06:38:28;;;;;;;5.22;3.00;;;;;;;;;;5095106;28;20219;-85
2022/02/01 06:40:56;;;;;;;4.28;2.17;;;;;;;;;;5095689;28;20253;-84
2022/02/01 06:43:26;;;;;;;3.67;2.40;;;;;;;;;;5095841;28;20203;-84
2022/02/01 06:45:54;;;;;;;5.40;2.40;;;;;;;;;;5095936;28;20206;-84
2022/02/01 06:49:11;;;;;;;2.90;1.45;;;;;;;;;;5093560;28;20236;-83
2022/02/01 06:51:39;;;;;;;3.67;1.75;;;;;;;;;;5057756;28;20219;-83
2022/02/01 06:54:07;;;;;;;3.85;2.38;;;;;;;;;;5093961;28;20196;-83
2022/02/01 06:56:34;;;;;;;3.25;1.92;;;;;;;;;;5094204;28;20216;-83
2022/02/01 06:59:02;;;;;;;1.98;1.30;;;;;;;;;;5093876;28;20228;-84
2022/02/01 07:01:30;;;;;;;3.15;1.58;;;;;;;;;;5093949;28;20204;-83
2022/02/01 07:03:58;;;;;;;1.30;1.02;;;;;;;;;;5093459;28;20238;-83
2022/02/01 07:06:30;;;;;;;5.28;2.08;;;;;;;;;;5093663;28;20204;-83
2022/02/01 07:08:59;;;;;;;2.47;1.50;;;;;;;;;;5093968;28;20224;-84
2022/02/01 07:11:27;;;;;;;2.22;1.58;;;;;;;;;;5093486;28;20199;-83
2022/02/01 07:13:54;;;;;;;2.08;1.77;;;;;;;;;;5093988;28;20208;-83
2022/02/01 07:16:22;;;;;;;2.20;1.50;;;;;;;;;;5093755;28;20690;-84
2022/02/01 07:18:49;;;;;;;1.70;1.45;;;;;;;;;;5093973;28;20569;-83
2022/02/01 07:21:17;;;;;;;3.28;2.28;;;;;;;;;;5093987;28;20211;-83
2022/02/01 07:23:46;;;;;;;4.32;2.08;;;;;;;;;;5093751;28;20207;-83
2022/02/01 07:26:13;;;;;;;2.17;1.40;;;;;;;;;;5093989;28;20204;-84
2022/02/01 07:28:41;;;;;;;3.95;1.95;;;;;;;;;;5094513;28;20223;-83
2022/02/01 07:31:09;;;;;;;2.38;1.38;;;;;;;;;;5094224;28;20598;-84
2022/02/01 07:33:38;;;;;;;3.67;1.95;;;;;;;;;;5094002;28;20224;-84
2022/02/01 07:36:06;;;;;;;4.80;1.70;;;;;;;;;;5094038;28;20675;-84
2022/02/01 07:38:34;;;;;;;2.72;1.85;;;;;;;;;;5094105;28;20257;-84
2022/02/01 07:41:03;;;;;;;1.30;1.10;;;;;;;;;;5094153;28;20208;-83
2022/02/01 07:43:31;;;;;;;3.15;1.55;;;;;;;;;;5096768;28;20203;-83
2022/02/01 07:46:04;;;;;;;1.50;1.30;;;;;;;;;;5098897;28;20262;-83
2022/02/01 07:48:31;;;;;;;6.25;2.70;;;;;;;;;;5098830;28;20228;-84
2022/02/01 07:50:59;;;;;;;2.50;1.25;;;;;;;;;;5098644;28;20625;-84
2022/02/01 07:53:26;;;;;;;3.08;1.45;;;;;;;;;;5098692;28;20223;-86
2022/02/01 07:55:54;;;;;;;2.03;1.40;;;;;;;;;;5098349;28;20197;-84
2022/02/01 07:58:22;;;;;;;3.85;1.75;;;;;;;;;;5098647;28;20277;-84
2022/02/01 08:00:50;;;;;;;1.40;1.30;;;;;;;;;;5099322;28;20203;-84
2022/02/01 08:03:17;;;;;;;3.13;1.35;;;;;;;;;;5098131;28;20200;-84
2022/02/01 08:05:44;;;;;;;3.38;1.80;;;;;;;;;;5098329;28;20281;-84
2022/02/01 08:08:12;;;;;;;2.63;1.50;;;;;;;;;;5099374;28;20197;-84
2022/02/01 08:10:44;;;;;;;2.03;1.48;;;;;;;;;;5099017;28;20200;-84
2022/02/01 08:14:19;;;;;;;4.80;2.08;;;;;;;;;;5097718;28;20278;-85
2022/02/01 08:19:25;;;;;;;2.70;1.90;;;;;;;;;;5091435;28;20313;-84
2022/02/01 08:21:54;;;;;;;3.08;1.35;;;;;;;;;;5093296;28;20218;-84
2022/02/01 08:24:24;;;;;;;5.63;1.65;;;;;;;;;;5098507;28;20596;-84
2022/02/01 08:26:52;;;;;;;5.32;2.53;;;;;;;;;;5097988;28;20223;-83
2022/02/01 08:29:19;;;;;;;2.05;1.48;;;;;;;;;;5097353;28;20764;-84
2022/02/01 08:31:49;;;;;;;1.95;1.10;;;;;;;;;;5097381;28;20208;-83
2022/02/01 08:34:17;;;;;;;3.28;2.30;;;;;;;;;;5098036;28;20651;-84
2022/02/01 08:36:44;;;;;;;3.75;1.38;;;;;;;;;;5096703;28;20614;-86
2022/02/01 08:39:11;;;;;;;5.30;1.60;;;;;;;;;;5097050;28;20232;-84
2022/02/01 08:41:38;;;;;;;6.47;1.90;;;;;;;;;;5096810;28;20201;-84
2022/02/01 08:44:07;;;;;;;4.22;2.00;;;;;;;;;;5097621;28;20204;-85
2022/02/01 08:46:34;;;;;;;3.20;2.25;;;;;;;;;;5096704;28;20196;-85
2022/02/01 08:49:03;;;;;;;2.78;1.63;;;;;;;;;;5096196;28;20601;-86
2022/02/01 08:51:38;;;;;;;1.95;1.10;;;;;;;;;;5097023;28;20204;-86
2022/02/01 08:54:12;;;;;;;2.55;1.55;;;;;;;;;;5096235;28;20231;-86
2022/02/01 08:59:26;;;;;;;4.40;1.63;;;;;;;;;;5096316;28;20235;-84
2022/02/01 09:01:55;;;;;;;1.77;1.33;;;;;;;;;;5096781;28;20211;-84
2022/02/01 09:04:24;;;;;;;1.90;1.67;;;;;;;;;;5098251;28;20595;-84
2022/02/01 09:06:52;;;;;;;2.30;1.88;;;;;;;;;;5092167;28;20219;-85
2022/02/01 09:09:19;;;;;;;4.35;1.55;;;;;;;;;;5092404;28;20227;-84
2022/02/01 09:11:48;;;;;;;2.45;1.27;;;;;;;;;;5091764;28;20200;-85
2022/02/01 09:14:15;;;;;;;1.48;1.35;;;;;;;;;;5092750;28;20230;-84
2022/02/01 09:16:43;;;;;;;1.63;1.10;;;;;;;;;;5094131;28;20282;-84
2022/02/01 09:19:16;;;;;;;1.75;1.30;;;;;;;;;;5100414;28;20231;-85
2022/02/01 09:21:46;;;;;;;4.07;1.50;;;;;;;;;;5096741;28;20212;-85
2022/02/01 09:24:13;;;;;;;1.90;1.35;;;;;;;;;;5100644;28;20196;-85
2022/02/01 09:26:42;;;;;;;3.13;1.63;;;;;;;;;;5099713;28;20196;-84
2022/02/01 09:29:10;;;;;;;2.22;1.50;;;;;;;;;;5098891;28;20270;-85
2022/02/01 09:31:37;;;;;;;3.55;1.52;;;;;;;;;;5099864;28;20211;-86
2022/02/01 09:34:06;;;;;;;2.90;1.63;;;;;;;;;;5100266;28;20224;-85
2022/02/01 09:36:34;;;;;;;3.35;1.80;;;;;;;;;;5100310;28;20286;-86
2022/02/01 09:39:05;;;;;;;4.85;1.73;;;;;;;;;;5100021;28;20238;-85
2022/02/01 09:41:33;;;;;;;2.47;1.70;;;;;;;;;;5100651;28;20200;-85
2022/02/01 09:44:01;;;;;;;1.60;1.50;;;;;;;;;;5100056;28;20714;-85
2022/02/01 09:46:30;;;;;;;4.70;2.22;;;;;;;;;;5099049;28;20651;-85
2022/02/01 09:48:57;;;;;;;4.40;2.30;;;;;;;;;;5098614;28;20609;-86
2022/02/01 09:51:25;;;;;;;11.68;2.60;;;;;;;;;;5097405;28;20428;-86
2022/02/01 09:53:53;;;;;;;1.83;1.67;;;;;;;;;;5097283;28;20224;-85
2022/02/01 09:56:21;;;;;;;3.17;2.15;;;;;;;;;;5098809;28;20210;-85
2022/02/01 09:58:54;;;;;;;5.50;2.35;;;;;;;;;;5098618;28;20228;-85
2022/02/01 10:01:26;;;;;;;3.58;3.10;;;;;;;;;;5099257;28;20283;-85
2022/02/01 10:04:02;;;;;;;3.83;2.00;;;;;;;;;;5098630;28;20647;-84
2022/02/01 10:06:31;;;;;;;6.68;3.00;;;;;;;;;;5097749;28;20211;-86
2022/02/01 10:09:05;;;;;;;2.42;1.98;;;;;;;;;;5098309;28;20661;-85
2022/02/01 10:11:40;;;;;;;5.22;2.67;;;;;;;;;;5095715;28;20559;-86
2022/02/01 10:14:09;;;;;;;4.20;2.47;;;;;;;;;;5098455;28;20286;-85
2022/02/01 10:16:43;;;;;;;4.68;3.13;;;;;;;;;;5098961;28;20201;-85
2022/02/01 10:19:13;;;;;;;5.07;2.25;;;;;;;;;;5098653;28;20224;-86
2022/02/01 10:21:51;;;;;;;4.60;2.20;;;;;;;;;;5098926;28;20694;-86
2022/02/01 10:24:29;;;;;;;4.88;2.58;;;;;;;;;;5098575;28;20229;-86
2022/02/01 10:27:09;;;;;;;2.88;1.95;;;;;;;;;;5098653;28;20227;-85
2022/02/01 10:29:39;;;;;;;5.20;2.83;;;;;;;;;;5092173;28;20231;-86
2022/02/01 10:32:22;;;;;;;2.55;1.80;;;;;;;;;;5098191;28;20253;-85
2022/02/01 10:34:49;;;;;;;2.20;1.63;;;;;;;;;;5097376;28;20249;-85
2022/02/01 10:37:20;;;;;;;2.67;2.47;;;;;;;;;;5098442;28;20203;-85
2022/02/01 10:39:54;;;;;;;3.25;1.95;;;;;;;;;;5101403;28;20307;-85
2022/02/01 10:42:24;;;;;;;6.05;2.50;;;;;;;;;;5097186;28;20690;-85
2022/02/01 10:44:55;;;;;;;5.40;2.70;;;;;;;;;;5097167;28;20204;-85
2022/02/01 10:47:33;;;;;;;3.50;2.28;;;;;;;;;;5097184;28;20208;-86
2022/02/01 10:50:07;;;;;;;3.42;2.38;;;;;;;;;;5097353;28;20314;-86
2022/02/01 10:52:37;;;;;;;3.40;2.55;;;;;;;;;;5096962;28;20333;-85
2022/02/01 10:55:08;;;;;;;2.47;2.28;;;;;;;;;;5097309;28;20220;-86
2022/02/01 10:57:37;;;;;;;2.63;2.28;;;;;;;;;;5097732;28;20200;-86
2022/02/01 11:00:08;;;;;;;2.30;2.05;;;;;;;;;;5096444;28;20232;-86
2022/02/01 11:02:42;;;;;;;3.63;2.20;;;;;;;;;;5096286;28;20212;-85
2022/02/01 11:05:10;;;;;;;2.95;2.05;;;;;;;;;;5096171;28;20196;-86
2022/02/01 11:07:37;;;;;;;2.55;2.10;;;;;;;;;;5096730;28;20620;-86
2022/02/01 11:10:09;;;;;;;3.42;3.08;;;;;;;;;;5096287;28;20227;-85
2022/02/01 11:12:40;;;;;;;3.60;2.20;;;;;;;;;;5097391;28;20208;-86
2022/02/01 11:15:19;;;;;;;2.22;2.03;;;;;;;;;;5097409;28;20224;-86
2022/02/01 11:17:47;;;;;;;3.08;2.30;;;;;;;;;;5098872;28;20253;-86
2022/02/01 11:20:27;;;;;;;3.55;2.10;;;;;;;;;;5100096;28;20719;-85
2022/02/01 11:23:03;;;;;;;1.95;1.85;;;;;;;;;;5094546;28;20204;-85
2022/02/01 11:25:44;;;;;;;2.88;2.53;;;;;;;;;;5096282;28;20569;-85
2022/02/01 11:28:32;;;;;;;3.58;2.38;;;;;;;;;;5102193;28;20302;-85
2022/02/01 11:31:00;;;;;;;3.25;2.20;;;;;;;;;;5101610;28;20684;-85
2022/02/01 11:33:38;;;;;;;3.85;2.80;;;;;;;;;;5100561;28;20290;-85
2022/02/01 11:36:07;;;;;;;2.83;2.03;;;;;;;;;;5101492;28;20789;-86
2022/02/01 11:38:35;;;;;;;2.63;1.90;;;;;;;;;;5100577;28;20730;-86
2022/02/01 11:41:06;;;;;;;1.88;1.65;;;;;;;;;;5101767;28;20257;-87
2022/02/01 11:43:36;;;;;;;1.70;1.60;;;;;;;;;;5100467;28;20690;-86
2022/02/01 11:46:07;;;;;;;1.83;1.73;;;;;;;;;;5101560;28;20204;-86
2022/02/01 11:48:39;;;;;;;1.50;1.40;;;;;;;;;;5100478;28;20700;-86
2022/02/01 11:51:09;;;;;;;1.50;1.40;;;;;;;;;;5099603;28;20205;-86
2022/02/01 11:53:40;;;;;;;1.58;1.48;;;;;;;;;;5099191;28;20777;-87
2022/02/01 11:56:09;;;;;;;1.95;1.60;;;;;;;;;;5098866;28;20247;-86
2022/02/01 11:58:41;;;;;;;1.33;1.27;;;;;;;;;;5100571;28;20220;-86
2022/02/01 12:01:21;;;;;;;1.83;1.48;;;;;;;;;;5100978;28;20208;-87
2022/02/01 12:03:48;;;;;;;1.55;1.45;;;;;;;;;;5099782;28;20211;-85
2022/02/01 12:06:22;;;;;;;1.92;1.35;;;;;;;;;;5099582;28;20196;-86
2022/02/01 12:08:49;;;;;;;1.33;1.10;;;;;;;;;;5098834;28;20277;-86
2022/02/01 12:11:17;;;;;;;1.10;0.98;;;;;;;;;;5100061;28;20377;-87
2022/02/01 12:13:46;;;;;;;1.05;1.05;;;;;;;;;;5099771;28;20208;-85
2022/02/01 12:16:13;;;;;;;1.30;1.20;;;;;;;;;;5101864;28;20224;-86
2022/02/01 12:18:51;;;;;;;2.05;1.10;;;;;;;;;;5098735;28;20231;-86
2022/02/01 12:21:36;;;;;;;1.52;1.50;;;;;;;;;;5100216;28;20577;-86
2022/02/01 12:24:05;;;;;;;1.33;1.13;;;;;;;;;;5100056;28;20221;-87
2022/02/01 12:26:35;;;;;;;1.60;1.50;;;;;;;;;;5098800;28;20196;-86
2022/02/01 12:29:07;;;;;;;1.55;1.25;;;;;;;;;;5098036;28;20225;-86
2022/02/01 12:31:38;;;;;;;1.77;1.48;;;;;;;;;;5099609;28;20680;-85
2022/02/01 12:34:11;;;;;;;1.20;1.10;;;;;;;;;;5098011;28;20207;-87
2022/02/01 12:36:41;;;;;;;1.23;1.13;;;;;;;;;;5097785;28;20232;-84
2022/02/01 12:39:15;;;;;;;1.10;1.00;;;;;;;;;;5098318;28;20258;-84
2022/02/01 12:41:50;;;;;;;0.80;0.80;;;;;;;;;;5091164;28;20197;-86
2022/02/01 12:47:07;;;;;;;0.90;0.90;;;;;;;;;;5097479;28;20595;-85
2022/02/01 12:49:39;;;;;;;1.27;0.70;;;;;;;;;;5098044;28;20224;-85
2022/02/01 12:52:18;;;;;;;0.70;0.70;;;;;;;;;;5097554;28;20730;-86
2022/02/01 12:54:46;;;;;;;0.63;0.63;;;;;;;;;;5097556;28;20204;-85
2022/02/01 12:57:16;;;;;;;1.00;0.95;;;;;;;;;;5097397;28;20215;-84
2022/02/01 12:59:47;;;;;;;0.98;0.98;;;;;;;;;;5090304;28;20228;-87
2022/02/01 13:02:17;;;;;;;0.80;0.80;;;;;;;;;;5097527;28;20200;-84
2022/02/01 13:04:45;;;;;;;1.40;1.30;;;;;;;;;;5096959;28;20197;-84
2022/02/01 13:07:22;;;;;;;1.75;0.73;;;;;;;;;;5097935;28;20210;-85
2022/02/01 13:15:30;;;;;;;1.00;0.88;;;;;;;;;;5096413;28;20227;-84
2022/02/01 13:18:20;;;;;;;0.65;0.65;;;;;;;;;;5095787;28;20200;-86
2022/02/01 13:20:57;;;;;;;0.80;0.80;;;;;;;;;;5095834;28;20274;-86
2022/02/01 13:23:36;;;;;;;0.60;0.60;;;;;;;;;;5097629;28;20207;-84
2022/02/01 13:26:08;;;;;;;0.70;0.70;;;;;;;;;;5097581;28;20219;-85
2022/02/01 13:28:36;;;;;;;0.95;0.95;;;;;;;;;;5090875;28;20282;-85
2022/02/01 13:31:12;;;;;;;1.13;0.73;;;;;;;;;;5097111;28;20204;-86
2022/02/01 13:33:47;;;;;;;1.42;1.35;;;;;;;;;;5097880;28;20200;-86
2022/02/01 13:36:14;;;;;;;0.60;0.60;;;;;;;;;;5095611;28;20703;-86
2022/02/01 13:38:56;;;;;;;0.57;0.57;;;;;;;;;;5095153;28;20229;-86
2022/02/01 13:41:25;;;;;;;0.93;0.93;;;;;;;;;;5094196;28;20227;-85
2022/02/01 13:43:55;;;;;;;0.60;0.60;;;;;;;;;;5094310;28;20219;-86
2022/02/01 13:46:28;;;;;;;0.60;0.60;;;;;;;;;;5096380;28;20290;-85
2022/02/01 13:49:04;;;;;;;0.50;0.50;;;;;;;;;;5099672;28;20788;-85
2022/02/01 13:51:32;;;;;;;0.60;0.60;;;;;;;;;;5096732;28;20576;-85
2022/02/01 13:54:03;;;;;;;0.60;0.60;;;;;;;;;;5094410;28;20223;-86
2022/02/01 13:56:44;;;;;;;0.57;0.57;;;;;;;;;;5094325;28;20227;-85
2022/02/01 13:59:25;;;;;;;0.98;0.90;;;;;;;;;;5093454;28;20228;-84
2022/02/01 14:02:07;;;;;;;0.50;0.50;;;;;;;;;;5095152;28;20218;-85
2022/02/01 14:04:53;;;;;;;0.32;0.32;;;;;;;;;;5096328;28;20200;-84
2022/02/01 14:07:37;;;;;;;0.77;0.50;;;;;;;;;;5090819;28;20341;-86
2022/02/01 14:10:16;;;;;;;0.50;0.50;;;;;;;;;;5093822;28;20675;-85
2022/02/01 14:13:36;;;;;;;0.50;0.50;;;;;;;;;;5092428;28;20223;-85
2022/02/01 14:27:42;;;;;;;0.57;0.57;;;;;;;;;;5094993;28;20584;-84
2022/02/01 14:35:43;;;;;;;0.70;0.70;;;;;;;;;;5096868;28;20211;-86
2022/02/01 14:38:36;;;;;;;0.40;0.40;;;;;;;;;;5095785;28;20195;-85
2022/02/01 14:44:03;;;;;;;1.38;0.80;;;;;;;;;;5093909;28;20246;-86
2022/02/01 14:46:33;;;;;;;0.50;0.50;;;;;;;;;;5095140;28;20246;-85
2022/02/01 14:49:02;;;;;;;0.50;0.50;;;;;;;;;;5093554;28;20685;-85
2022/02/01 14:51:32;;;;;;;1.83;1.45;;;;;;;;;;5097238;28;20204;-84
2022/02/01 14:53:59;;;;;;;0.63;0.63;;;;;;;;;;5116242;28;20184;-85
2022/02/01 14:56:33;;;;;;;0.50;0.50;;;;;;;;;;5116044;28;20231;-85
2022/02/01 15:04:56;;;;;;;0.45;0.45;;;;;;;;;;5091704;28;20349;-84
2022/02/01 15:07:37;;;;;;;0.80;0.80;;;;;;;;;;5092809;28;20246;-84
2022/02/01 15:12:52;;;;;;;0.40;0.40;;;;;;;;;;5094531;28;20214;-84
2022/02/01 15:15:20;;;;;;;0.63;0.63;;;;;;;;;;5086417;28;20200;-84
2022/02/01 15:17:48;;;;;;;0.50;0.40;;;;;;;;;;5092928;28;20227;-84
2022/02/01 15:20:15;;;;;;;0.30;0.30;;;;;;;;;;5092793;28;20285;-86
2022/02/01 15:22:45;;;;;;;0.32;0.32;;;;;;;;;;5092957;28;20197;-84
2022/02/01 15:25:13;;;;;;;0.40;0.40;;;;;;;;;;5093286;28;20742;-85
2022/02/01 15:27:40;;;;;;;0.60;0.60;;;;;;;;;;5092606;28;20287;-84
2022/02/01 15:30:09;;;;;;;0.30;0.30;;;;;;;;;;5092258;28;20227;-85
2022/02/01 15:32:37;;;;;;;0.40;0.40;;;;;;;;;;5092513;28;20208;-85
2022/02/01 15:35:12;;;;;;;0.50;0.50;;;;;;;;;;5092149;28;20211;-86
2022/02/01 15:37:40;;;;;;;0.47;0.47;;;;;;;;;;5092239;28;20227;-85
2022/02/01 15:57:03;;;;;;;0.70;0.70;;;;;;;;;;5093899;28;20294;-87
2022/02/01 15:59:33;;;;;;;1.00;1.00;;;;;;;;;;5093875;28;20311;-84
2022/02/01 16:02:07;;;;;;;1.85;0.60;;;;;;;;;;5096265;28;20287;-88
2022/02/01 16:04:35;;;;;;;0.47;0.47;;;;;;;;;;5099908;28;20253;-86
2022/02/01 16:07:05;;;;;;;0.70;0.70;;;;;;;;;;5101232;28;20193;-88
2022/02/01 16:09:40;;;;;;;0.50;0.50;;;;;;;;;;5103067;28;20259;-90
2022/02/01 16:12:12;;;;;;;0.60;0.60;;;;;;;;;;5101696;28;20214;-91
2022/02/01 16:14:39;;;;;;;0.60;0.60;;;;;;;;;;5103518;28;20195;-85
2022/02/01 16:17:07;;;;;;;0.60;0.60;;;;;;;;;;5096108;28;20236;-85
2022/02/01 16:19:34;;;;;;;0.70;0.70;;;;;;;;;;5095993;28;20220;-85
2022/02/01 16:22:01;;;;;;;0.80;0.80;;;;;;;;;;5096049;28;20204;-86
2022/02/01 16:24:30;;;;;;;0.80;0.80;;;;;;;;;;5095706;28;20204;-86
2022/02/01 16:26:58;;;;;;;0.73;0.73;;;;;;;;;;5095828;28;20205;-87
2022/02/01 16:29:54;;;;;;;0.70;0.70;;;;;;;;;;5095480;28;20605;-88
2022/02/01 16:32:24;;;;;;;0.70;0.70;;;;;;;;;;5096300;28;20295;-84
2022/02/01 16:34:51;;;;;;;0.50;0.50;;;;;;;;;;5100693;28;20200;-84
2022/02/01 16:37:18;;;;;;;0.90;0.90;;;;;;;;;;5098230;28;20444;-87
2022/02/01 16:39:46;;;;;;;0.90;0.90;;;;;;;;;;5100069;28;20649;-88
2022/02/01 16:42:24;;;;;;;0.68;0.68;;;;;;;;;;5095622;28;20208;-87
2022/02/01 16:44:55;;;;;;;0.90;0.90;;;;;;;;;;5095481;28;20200;-86
2022/02/01 16:47:23;;;;;;;0.90;0.90;;;;;;;;;;5096109;28;20208;-86
2022/02/01 16:49:52;;;;;;;1.10;1.10;;;;;;;;;;5095447;28;20299;-86
2022/02/01 16:52:25;;;;;;;1.27;1.08;;;;;;;;;;5095082;28;20212;-85
2022/02/01 16:55:01;;;;;;;0.90;0.90;;;;;;;;;;5095736;28;20247;-86